Time;durP1;ratioP1;P1;durP2;ratioP2;P2;SDS_P1;SDS_P2;PMS_P1;PMS_P2;Temp;Humidity;BMP_temperature;BMP_pressure;BME280_temperature;BME280_humidity;BME280_pressure;Samples;Min_cycle;Max_cycle;Signal;HPM_P1;HPM_P2
2023/01/02 00:01:17;;;;;;;70.57;51.95;;;16.50;80.00;;;;;;4895140;28;90953;-49
2023/01/02 00:03:43;;;;;;;70.57;51.70;;;16.50;79.90;;;;;;4913425;28;90375;-48
2023/01/02 00:06:08;;;;;;;70.32;51.45;;;16.60;80.10;;;;;;4901067;28;90123;-48
2023/01/02 00:08:34;;;;;;;71.07;51.50;;;16.60;80.00;;;;;;4910053;28;93895;-47
2023/01/02 00:10:59;;;;;;;70.22;52.28;;;16.50;79.90;;;;;;4907812;28;90095;-51
2023/01/02 00:13:25;;;;;;;72.40;51.63;;;16.50;79.90;;;;;;4916124;28;90219;-50
2023/01/02 00:15:51;;;;;;;68.78;51.35;;;16.50;80.60;;;;;;4910329;28;89043;-49
2023/01/02 00:18:16;;;;;;;69.15;51.53;;;16.50;79.70;;;;;;4907030;28;89666;-49
2023/01/02 00:20:42;;;;;;;70.45;51.63;;;16.50;79.90;;;;;;4907550;28;90394;-50
2023/01/02 00:23:08;;;;;;;69.35;51.67;;;16.50;80.00;;;;;;4927934;28;93405;-51
2023/01/02 00:25:34;;;;;;;69.80;51.60;;;16.50;80.00;;;;;;4900307;28;91183;-52
2023/01/02 00:28:01;;;;;;;70.05;51.50;;;16.50;79.90;;;;;;4902524;28;95876;-49
2023/01/02 00:30:27;;;;;;;69.22;51.33;;;16.50;79.90;;;;;;4904185;28;89928;-49
2023/01/02 00:32:52;;;;;;;68.55;51.63;;;16.40;79.70;;;;;;4908311;28;95988;-52
2023/01/02 00:35:18;;;;;;;70.18;51.40;;;16.40;79.90;;;;;;4902244;28;92444;-48
2023/01/02 00:37:43;;;;;;;70.47;51.70;;;16.40;79.90;;;;;;4904727;28;89806;-50
2023/01/02 00:40:13;;;;;;;69.85;51.80;;;16.40;80.10;;;;;;4910140;28;90601;-48
2023/01/02 00:42:40;;;;;;;70.18;51.45;;;16.50;80.00;;;;;;4899168;28;92169;-47
2023/01/02 00:45:06;;;;;;;69.75;51.28;;;16.40;80.00;;;;;;4905037;28;89951;-50
2023/01/02 00:47:32;;;;;;;69.28;51.50;;;16.40;79.90;;;;;;4909221;28;90695;-50
2023/01/02 00:49:58;;;;;;;70.80;51.45;;;16.40;80.00;;;;;;4912291;28;90047;-50
2023/01/02 00:52:23;;;;;;;69.78;51.60;;;16.40;80.00;;;;;;4911358;28;96154;-51
2023/01/02 00:54:49;;;;;;;70.18;51.55;;;16.40;80.00;;;;;;4908740;28;91686;-50
2023/01/02 00:57:15;;;;;;;69.82;51.00;;;16.40;79.80;;;;;;4906012;28;90449;-48
2023/01/02 00:59:40;;;;;;;68.47;50.80;;;16.40;79.90;;;;;;4905391;28;91632;-48
2023/01/02 01:02:06;;;;;;;68.63;51.50;;;16.40;79.90;;;;;;4900318;28;89884;-51
2023/01/02 01:04:33;;;;;;;69.55;51.47;;;16.40;79.80;;;;;;4905143;28;90874;-49
2023/01/02 01:06:59;;;;;;;68.57;51.20;;;16.40;80.20;;;;;;4911528;28;92072;-52
2023/01/02 01:09:24;;;;;;;69.70;51.17;;;16.40;80.00;;;;;;4898582;28;90164;-48
2023/01/02 01:11:50;;;;;;;68.53;51.17;;;16.40;80.10;;;;;;4906970;28;94829;-48
2023/01/02 01:14:16;;;;;;;68.45;50.92;;;16.30;80.00;;;;;;4912943;28;92174;-50
2023/01/02 01:16:41;;;;;;;68.93;51.05;;;16.40;80.00;;;;;;4903874;28;89909;-49
2023/01/02 01:19:08;;;;;;;69.78;51.22;;;16.30;80.00;;;;;;4901936;28;90837;-47
2023/01/02 01:21:33;;;;;;;68.47;50.65;;;16.30;80.00;;;;;;4910689;28;90344;-51
2023/01/02 01:23:59;;;;;;;68.65;51.28;;;16.30;80.00;;;;;;4917336;28;93827;-48
2023/01/02 01:26:25;;;;;;;69.40;51.17;;;16.30;80.00;;;;;;4903561;28;93586;-52
2023/01/02 01:28:55;;;;;;;67.82;51.00;;;16.30;80.00;;;;;;4899225;28;92077;-49
2023/01/02 01:31:21;;;;;;;70.03;51.30;;;16.30;80.10;;;;;;4911652;28;91129;-44
2023/01/02 01:33:47;;;;;;;68.78;50.67;;;16.30;80.00;;;;;;4911461;28;93527;-48
2023/01/02 01:36:22;;;;;;;68.03;50.90;;;16.30;80.10;;;;;;4908981;28;91049;-46
2023/01/02 01:38:48;;;;;;;68.28;50.85;;;16.30;80.00;;;;;;4907038;28;91273;-49
2023/01/02 01:41:18;;;;;;;69.03;51.03;;;16.30;80.00;;;;;;4914984;28;93750;-49
2023/01/02 01:43:53;;;;;;;69.53;50.65;;;16.30;80.10;;;;;;4907705;28;90620;-46
2023/01/02 01:46:45;;;;;;;68.40;50.60;;;16.30;80.00;;;;;;4919554;28;89867;-50
2023/01/02 01:49:23;;;;;;;67.45;50.53;;;16.30;80.10;;;;;;4918721;28;90299;-51
2023/01/02 01:52:03;;;;;;;67.70;50.40;;;16.20;79.90;;;;;;4903086;28;90224;-52
2023/01/02 01:54:33;;;;;;;67.70;50.67;;;16.30;80.10;;;;;;4912910;28;89825;-50
2023/01/02 01:57:08;;;;;;;68.53;50.87;;;16.30;80.30;;;;;;4906939;28;89655;-50
2023/01/02 01:59:34;;;;;;;67.97;50.85;;;16.30;80.20;;;;;;4906183;28;89945;-52
2023/01/02 02:02:00;;;;;;;69.05;50.83;;;16.30;80.10;;;;;;4910468;28;91846;-48
2023/01/02 02:04:26;;;;;;;67.97;50.70;;;16.20;80.10;;;;;;4901180;28;92883;-52
2023/01/02 02:06:53;;;;;;;68.10;50.83;;;16.30;80.30;;;;;;4912326;28;90628;-49
2023/01/02 02:09:36;;;;;;;68.72;50.85;;;16.30;80.10;;;;;;4917250;28;92431;-50
2023/01/02 02:12:03;;;;;;;68.25;50.53;;;16.20;80.80;;;;;;4907916;28;89806;-48
2023/01/02 02:14:28;;;;;;;68.07;50.88;;;16.20;80.20;;;;;;4907925;28;91269;-46
2023/01/02 02:17:12;;;;;;;69.03;50.33;;;16.20;80.20;;;;;;4912913;28;90995;-49
2023/01/02 02:20:03;;;;;;;67.75;50.67;;;16.20;80.10;;;;;;4906952;28;89540;-48
2023/01/02 02:22:47;;;;;;;69.70;51.00;;;16.20;80.10;;;;;;4900923;28;92760;-50
2023/01/02 02:25:50;;;;;;;68.10;50.28;;;16.20;80.20;;;;;;4907328;28;91858;-50
2023/01/02 02:28:27;;;;;;;69.20;50.78;;;16.20;80.10;;;;;;4901537;28;93350;-49
2023/01/02 02:31:15;;;;;;;67.53;50.35;;;16.20;80.00;;;;;;4901288;28;89686;-50
2023/01/02 02:33:55;;;;;;;67.88;50.70;;;16.20;80.20;;;;;;4906076;28;90081;-48
2023/01/02 02:36:39;;;;;;;67.75;50.25;;;16.20;80.20;;;;;;4909704;28;89944;-47
2023/01/02 02:39:13;;;;;;;68.28;50.78;;;16.20;80.30;;;;;;4915061;28;89957;-50
2023/01/02 02:42:10;;;;;;;67.78;50.60;;;16.20;80.20;;;;;;4905216;28;90208;-51
2023/01/02 02:44:38;;;;;;;67.13;50.05;;;16.20;80.20;;;;;;4912671;28;90275;-51
2023/01/02 02:47:21;;;;;;;68.50;51.03;;;16.20;80.10;;;;;;4907621;28;91216;-48
2023/01/02 02:50:06;;;;;;;69.55;50.80;;;16.10;80.10;;;;;;4903628;28;94101;-49
2023/01/02 02:52:39;;;;;;;68.30;50.38;;;16.10;80.10;;;;;;4902178;28;94165;-47
2023/01/02 02:55:23;;;;;;;67.57;50.45;;;16.20;80.10;;;;;;4903829;28;92222;-47
2023/01/02 02:57:50;;;;;;;67.63;49.95;;;16.10;80.10;;;;;;4898784;28;91969;-49
2023/01/02 03:00:18;;;;;;;68.18;50.33;;;16.10;80.10;;;;;;4909157;28;92595;-49
2023/01/02 03:02:45;;;;;;;67.40;50.42;;;16.10;80.20;;;;;;4905409;28;90527;-48
2023/01/02 03:05:20;;;;;;;69.28;50.40;;;16.10;80.00;;;;;;4907027;28;90232;-48
2023/01/02 03:07:53;;;;;;;68.10;50.60;;;16.10;80.10;;;;;;4898279;28;90207;-48
2023/01/02 03:10:48;;;;;;;67.28;50.45;;;16.10;80.10;;;;;;4904265;28;89808;-46
2023/01/02 03:13:38;;;;;;;67.35;50.25;;;16.10;80.10;;;;;;4907882;28;89718;-49
2023/01/02 03:16:32;;;;;;;68.28;50.30;;;16.10;80.10;;;;;;4906493;28;90788;-48
2023/01/02 03:19:26;;;;;;;66.80;49.95;;;16.10;80.00;;;;;;4900690;28;90587;-48
2023/01/02 03:22:11;;;;;;;68.15;50.40;;;16.10;80.00;;;;;;4903021;28;91398;-53
2023/01/02 03:24:38;;;;;;;70.18;50.67;;;16.10;80.00;;;;;;4902902;28;93565;-47
2023/01/02 03:27:09;;;;;;;67.43;50.08;;;16.10;80.10;;;;;;4908371;28;92681;-52
2023/01/02 03:29:38;;;;;;;66.60;50.03;;;16.10;80.10;;;;;;4908593;28;90880;-48
2023/01/02 03:32:09;;;;;;;68.47;50.15;;;16.10;80.00;;;;;;4898747;28;90744;-49
2023/01/02 03:34:38;;;;;;;69.32;50.40;;;16.10;80.10;;;;;;4898784;28;92406;-45
2023/01/02 03:37:11;;;;;;;67.78;50.65;;;16.10;80.00;;;;;;4908801;28;91018;-51
2023/01/02 03:39:48;;;;;;;67.68;50.22;;;16.10;80.00;;;;;;4917825;28;90575;-52
2023/01/02 03:42:37;;;;;;;67.32;50.08;;;16.10;80.00;;;;;;4889439;28;93243;-46
2023/01/02 03:45:20;;;;;;;67.85;50.00;;;16.10;80.10;;;;;;4903323;28;95756;-49
2023/01/02 03:47:49;;;;;;;66.57;49.88;;;16.10;79.90;;;;;;4894793;28;92171;-50
2023/01/02 03:50:20;;;;;;;66.97;50.30;;;16.10;80.00;;;;;;4893351;28;93807;-51
2023/01/02 03:52:46;;;;;;;;;;;16.10;79.70;;;;;;4901509;28;91886;-52
2023/01/02 03:55:12;;;;;;;67.63;50.33;;;16.00;79.90;;;;;;4913402;28;89749;-47
2023/01/02 03:57:49;;;;;;;67.43;50.38;;;16.00;80.00;;;;;;4905460;28;90994;-52
2023/01/02 04:00:18;;;;;;;69.07;50.15;;;16.00;79.90;;;;;;4896980;28;91517;-49
2023/01/02 04:02:49;;;;;;;69.72;50.53;;;16.00;79.90;;;;;;4904159;28;91964;-49
2023/01/02 04:05:33;;;;;;;67.25;49.92;;;16.00;79.90;;;;;;4906837;28;90408;-51
2023/01/02 04:08:04;;;;;;;69.35;50.28;;;16.00;79.90;;;;;;4907240;28;90020;-51
2023/01/02 04:10:32;;;;;;;;;;;16.00;80.00;;;;;;4892126;28;91476;-49
2023/01/02 04:13:03;;;;;;;65.90;49.65;;;16.00;79.80;;;;;;4893453;28;92327;-49
2023/01/02 04:15:33;;;;;;;67.40;49.95;;;16.00;79.90;;;;;;4906906;28;89627;-50
2023/01/02 04:18:23;;;;;;;67.47;49.83;;;16.00;79.90;;;;;;4914573;28;90036;-50
2023/01/02 04:20:52;;;;;;;68.40;49.63;;;16.00;79.90;;;;;;4910578;28;90184;-54
2023/01/02 04:23:36;;;;;;;67.60;49.85;;;16.00;80.00;;;;;;4896478;28;90560;-52
2023/01/02 04:26:06;;;;;;;67.38;49.67;;;16.00;80.00;;;;;;4905399;28;91445;-48
2023/01/02 04:28:33;;;;;;;66.07;49.53;;;15.90;79.70;;;;;;4906650;28;90157;-50
2023/01/02 04:31:12;;;;;;;66.60;49.97;;;15.90;79.90;;;;;;4889922;28;90465;-53
2023/01/02 04:33:46;;;;;;;66.43;49.95;;;15.90;79.90;;;;;;4898638;28;91433;-49
2023/01/02 04:36:14;;;;;;;67.55;49.92;;;15.90;79.90;;;;;;4916027;28;91134;-49
2023/01/02 04:38:44;;;;;;;66.25;49.83;;;15.90;79.90;;;;;;4894346;28;96797;-51
2023/01/02 04:41:16;;;;;;;66.10;49.67;;;15.90;79.90;;;;;;4901911;28;91813;-52
2023/01/02 04:43:41;;;;;;;;;;;15.90;79.80;;;;;;4904830;28;90076;-51
2023/01/02 04:46:07;;;;;;;66.50;49.40;;;15.90;79.90;;;;;;4906503;28;89763;-51
2023/01/02 04:48:32;;;;;;;66.47;49.50;;;15.90;79.90;;;;;;4900133;28;93789;-53
2023/01/02 04:50:58;;;;;;;65.63;49.33;;;15.90;79.90;;;;;;4900300;28;89936;-49
2023/01/02 04:53:24;;;;;;;66.63;49.83;;;15.80;79.90;;;;;;4907196;28;89723;-52
2023/01/02 04:55:55;;;;;;;65.38;48.88;;;15.80;79.80;;;;;;4901923;28;90201;-47
2023/01/02 04:58:21;;;;;;;;;;;15.90;79.90;;;;;;4904107;28;90908;-52
2023/01/02 05:00:46;;;;;;;65.35;49.45;;;15.80;79.70;;;;;;4906017;28;89941;-51
2023/01/02 05:03:12;;;;;;;66.50;49.65;;;15.90;79.90;;;;;;4909138;28;91047;-50
2023/01/02 05:05:40;;;;;;;66.13;49.75;;;15.90;79.80;;;;;;4902589;28;90959;-53
2023/01/02 05:08:06;;;;;;;66.32;49.35;;;15.80;79.80;;;;;;4899794;28;90217;-53
2023/01/02 05:10:32;;;;;;;65.28;49.25;;;15.80;79.70;;;;;;4911967;28;90468;-49
2023/01/02 05:12:58;;;;;;;67.30;49.95;;;15.80;79.60;;;;;;4910481;28;90214;-45
2023/01/02 05:15:24;;;;;;;65.85;49.42;;;15.80;80.00;;;;;;4906269;28;89995;-50
2023/01/02 05:17:50;;;;;;;66.00;49.78;;;15.80;79.80;;;;;;4904221;28;90258;-53
2023/01/02 05:20:16;;;;;;;65.82;49.38;;;15.80;79.80;;;;;;4909188;28;89723;-52
2023/01/02 05:25:31;;;;;;;66.22;49.55;;;15.80;79.80;;;;;;4893070;28;90574;-50
2023/01/02 05:27:57;;;;;;;65.85;49.55;;;15.70;79.80;;;;;;4904827;28;91151;-46
2023/01/02 05:30:22;;;;;;;65.80;49.40;;;15.80;80.00;;;;;;4910905;28;91656;-50
2023/01/02 05:32:48;;;;;;;66.93;49.60;;;15.80;79.90;;;;;;4914684;28;90389;-53
2023/01/02 05:35:14;;;;;;;66.15;49.50;;;15.70;79.90;;;;;;4893836;28;90794;-52
2023/01/02 05:37:40;;;;;;;65.80;49.75;;;15.70;79.90;;;;;;4900546;28;90216;-49
2023/01/02 05:40:07;;;;;;;66.32;49.78;;;15.70;79.90;;;;;;4901721;28;93121;-45
2023/01/02 05:42:32;;;;;;;65.60;49.47;;;15.70;80.00;;;;;;4909657;28;90708;-51
2023/01/02 05:44:58;;;;;;;65.35;49.25;;;15.70;79.90;;;;;;4903940;28;93881;-51
2023/01/02 05:47:24;;;;;;;65.70;49.55;;;15.70;79.90;;;;;;4902355;28;91486;-49
2023/01/02 05:49:49;;;;;;;65.47;49.47;;;15.70;79.90;;;;;;4911540;28;89958;-51
2023/01/02 05:52:15;;;;;;;65.38;49.42;;;15.70;79.90;;;;;;4904496;28;92384;-52
2023/01/02 05:54:40;;;;;;;65.90;49.35;;;15.70;80.10;;;;;;4904647;28;90285;-48
2023/01/02 05:57:06;;;;;;;65.85;49.60;;;15.70;80.10;;;;;;4907420;28;92866;-45
2023/01/02 05:59:32;;;;;;;65.63;49.38;;;15.70;80.10;;;;;;4911928;28;89942;-51
2023/01/02 06:01:57;;;;;;;65.30;49.55;;;15.70;80.00;;;;;;4904659;28;89917;-52
2023/01/02 06:04:23;;;;;;;65.97;49.53;;;15.70;80.00;;;;;;4912332;28;92275;-51
2023/01/02 06:06:49;;;;;;;65.10;49.15;;;15.70;80.20;;;;;;4910072;28;92228;-51
2023/01/02 06:09:16;;;;;;;65.50;49.33;;;15.60;80.10;;;;;;4903055;28;90365;-51
2023/01/02 06:11:42;;;;;;;65.70;49.30;;;15.60;80.10;;;;;;4903225;28;94854;-52
2023/01/02 06:14:09;;;;;;;65.93;49.22;;;15.60;80.20;;;;;;4906104;28;90430;-48
2023/01/02 06:16:35;;;;;;;65.43;49.15;;;15.60;80.20;;;;;;4914785;28;90740;-52
2023/01/02 06:19:02;;;;;;;65.63;49.80;;;15.60;80.20;;;;;;4906981;28;95922;-48
2023/01/02 06:21:27;;;;;;;65.80;49.47;;;15.60;80.20;;;;;;4905810;28;95134;-53
2023/01/02 06:23:56;;;;;;;66.00;49.53;;;15.60;80.20;;;;;;4909927;28;90941;-47
2023/01/02 06:26:23;;;;;;;65.65;49.13;;;15.60;80.20;;;;;;4915470;28;90970;-52
2023/01/02 06:28:52;;;;;;;65.72;49.45;;;15.60;80.30;;;;;;4920574;28;89430;-52
2023/01/02 06:31:20;;;;;;;65.72;49.10;;;15.50;80.30;;;;;;4905311;28;92764;-49
2023/01/02 06:33:46;;;;;;;65.10;49.33;;;15.50;80.20;;;;;;4909945;28;89197;-53
2023/01/02 06:36:17;;;;;;;66.15;49.35;;;15.60;80.40;;;;;;4910000;28;90442;-48
2023/01/02 06:38:46;;;;;;;66.05;49.53;;;15.50;80.30;;;;;;4897482;28;96575;-45
2023/01/02 06:41:13;;;;;;;67.45;49.50;;;15.50;80.40;;;;;;4900256;28;92032;-50
2023/01/02 06:43:44;;;;;;;65.43;49.50;;;15.50;80.40;;;;;;4911337;28;89926;-52
2023/01/02 06:46:11;;;;;;;65.05;49.05;;;15.50;80.40;;;;;;4910992;28;90196;-53
2023/01/02 06:48:37;;;;;;;66.15;49.13;;;15.50;80.40;;;;;;4908309;28;92163;-52
2023/01/02 06:51:10;;;;;;;65.53;49.45;;;15.50;80.50;;;;;;4906918;28;91547;-48
2023/01/02 06:53:37;;;;;;;65.38;49.30;;;15.50;80.70;;;;;;4909346;28;90295;-53
2023/01/02 06:56:04;;;;;;;67.10;49.63;;;15.50;80.80;;;;;;4908487;28;90501;-51
2023/01/02 06:58:31;;;;;;;68.72;49.58;;;15.50;80.90;;;;;;4907125;28;89523;-52
2023/01/02 07:01:09;;;;;;;65.50;49.42;;;15.50;81.00;;;;;;4907823;28;89687;-52
2023/01/02 07:03:35;;;;;;;64.60;49.00;;;15.50;80.90;;;;;;4905119;28;92463;-49
2023/01/02 07:06:03;;;;;;;65.93;49.50;;;15.50;80.90;;;;;;4910838;28;91163;-53
2023/01/02 07:08:29;;;;;;;64.90;49.20;;;15.50;80.80;;;;;;4907414;28;92908;-48
2023/01/02 07:10:55;;;;;;;65.22;49.33;;;15.40;80.80;;;;;;4896016;28;91370;-48
2023/01/02 07:13:20;;;;;;;66.03;49.17;;;15.40;80.80;;;;;;4909740;28;91620;-48
2023/01/02 07:15:46;;;;;;;66.85;49.28;;;15.40;80.90;;;;;;4925490;28;92468;-48
2023/01/02 07:18:12;;;;;;;65.35;49.33;;;15.40;80.80;;;;;;4902150;28;90101;-52
2023/01/02 07:20:37;;;;;;;66.07;49.22;;;15.40;80.80;;;;;;4902877;28;90275;-50
2023/01/02 07:23:03;;;;;;;65.75;49.33;;;15.40;80.80;;;;;;4915577;28;92099;-49
2023/01/02 07:25:28;;;;;;;66.57;49.60;;;15.40;80.80;;;;;;4912279;28;90406;-51
2023/01/02 07:27:54;;;;;;;66.47;49.30;;;15.40;80.80;;;;;;4893285;28;91872;-52
2023/01/02 07:30:19;;;;;;;67.43;49.40;;;15.40;80.80;;;;;;4899388;28;92603;-52
2023/01/02 07:32:45;;;;;;;68.00;49.42;;;15.40;80.90;;;;;;4908236;28;90392;-53
2023/01/02 07:35:11;;;;;;;66.40;49.58;;;15.40;80.90;;;;;;4897930;28;89982;-47
2023/01/02 07:37:37;;;;;;;65.88;49.40;;;15.40;80.90;;;;;;4905204;28;89652;-53
2023/01/02 07:40:02;;;;;;;65.68;49.60;;;15.40;80.90;;;;;;4911008;28;90282;-54
2023/01/02 07:42:28;;;;;;;65.60;49.17;;;15.40;80.90;;;;;;4906849;28;91414;-54
2023/01/02 07:44:54;;;;;;;66.85;49.22;;;15.40;80.90;;;;;;4907184;28;90612;-52
2023/01/02 07:47:19;;;;;;;66.65;49.25;;;15.40;80.90;;;;;;4907051;28;94207;-54
2023/01/02 07:49:45;;;;;;;65.07;49.08;;;15.40;80.90;;;;;;4914252;28;90113;-52
2023/01/02 07:52:10;;;;;;;65.10;49.15;;;15.30;80.90;;;;;;4904918;28;90647;-52
2023/01/02 07:54:36;;;;;;;65.30;49.35;;;15.30;80.90;;;;;;4905906;28;91530;-53
2023/01/02 07:57:03;;;;;;;65.88;49.13;;;15.30;80.90;;;;;;4906032;28;91151;-50
2023/01/02 07:59:28;;;;;;;65.03;49.05;;;15.30;80.80;;;;;;4906487;28;91774;-52
2023/01/02 08:01:54;;;;;;;65.57;49.33;;;15.30;80.80;;;;;;4904801;28;93234;-48
2023/01/02 08:04:20;;;;;;;65.38;49.38;;;15.30;80.90;;;;;;4904520;28;92985;-54
2023/01/02 08:06:46;;;;;;;65.32;49.10;;;15.30;81.00;;;;;;4913732;28;91258;-48
2023/01/02 08:09:11;;;;;;;65.45;49.30;;;15.30;80.90;;;;;;4902357;28;96443;-51
2023/01/02 08:11:37;;;;;;;65.03;49.17;;;15.30;80.90;;;;;;4909357;28;88827;-51
2023/01/02 08:14:03;;;;;;;65.18;49.35;;;15.30;80.80;;;;;;4916284;28;91529;-49
2023/01/02 08:16:28;;;;;;;66.55;49.20;;;15.30;80.90;;;;;;4900004;28;91446;-50
2023/01/02 08:18:54;;;;;;;64.93;49.25;;;15.30;80.90;;;;;;4902237;28;92855;-48
2023/01/02 08:21:24;;;;;;;66.22;49.35;;;15.30;80.90;;;;;;4912362;28;90361;-50
2023/01/02 08:23:50;;;;;;;66.85;49.38;;;15.30;80.90;;;;;;4918363;28;90562;-48
2023/01/02 08:26:16;;;;;;;65.40;49.42;;;15.30;80.80;;;;;;4914760;28;89961;-49
2023/01/02 08:28:42;;;;;;;65.40;49.28;;;15.30;80.80;;;;;;4906296;28;90499;-49
2023/01/02 08:31:13;;;;;;;69.03;49.55;;;15.30;80.90;;;;;;4908915;28;91036;-49
2023/01/02 08:33:39;;;;;;;64.82;49.53;;;15.30;80.80;;;;;;4903306;28;94855;-53
2023/01/02 08:36:05;;;;;;;65.10;49.47;;;15.30;80.80;;;;;;4907561;28;91051;-53
2023/01/02 08:38:31;;;;;;;64.60;48.95;;;15.30;80.70;;;;;;4902653;28;91418;-51
2023/01/02 08:40:58;;;;;;;65.15;49.03;;;15.30;80.80;;;;;;4901792;28;89932;-48
2023/01/02 08:43:24;;;;;;;65.70;49.28;;;15.30;80.80;;;;;;4906882;28;91079;-48
2023/01/02 08:45:50;;;;;;;65.35;49.38;;;15.30;80.90;;;;;;4897028;28;91389;-51
2023/01/02 08:48:15;;;;;;;65.10;49.20;;;15.30;80.80;;;;;;4902045;28;90076;-52
2023/01/02 08:50:41;;;;;;;64.43;48.95;;;15.30;80.80;;;;;;4912629;28;90021;-50
2023/01/02 08:53:06;;;;;;;65.07;49.20;;;15.30;80.80;;;;;;4895978;28;93481;-49
2023/01/02 08:55:32;;;;;;;65.97;49.47;;;15.30;80.80;;;;;;4924989;28;90887;-49
2023/01/02 08:57:58;;;;;;;65.65;49.67;;;15.20;80.70;;;;;;4901934;28;90450;-47
2023/01/02 09:00:23;;;;;;;65.10;49.38;;;15.30;80.80;;;;;;4897114;28;89620;-50
2023/01/02 09:02:49;;;;;;;68.38;49.03;;;15.30;81.10;;;;;;4909269;28;91179;-52
2023/01/02 09:05:15;;;;;;;64.63;49.15;;;15.30;80.70;;;;;;4903939;28;90201;-52
2023/01/02 09:07:42;;;;;;;65.40;49.70;;;15.40;80.90;;;;;;4908669;28;91242;-52
2023/01/02 09:10:08;;;;;;;65.80;49.90;;;15.40;81.00;;;;;;4887102;28;90651;-50
2023/01/02 09:12:34;;;;;;;69.90;50.88;;;15.30;80.90;;;;;;4903180;28;90596;-50
2023/01/02 09:15:00;;;;;;;70.70;50.20;;;15.30;80.80;;;;;;4906442;28;95296;-48
2023/01/02 09:17:26;;;;;;;68.88;50.53;;;15.30;81.00;;;;;;4920507;28;90466;-52
2023/01/02 09:19:51;;;;;;;66.28;50.00;;;15.30;81.50;;;;;;4908363;28;90390;-51
2023/01/02 09:22:17;;;;;;;66.93;50.30;;;15.30;81.20;;;;;;4906657;28;89985;-49
2023/01/02 09:24:42;;;;;;;66.85;50.45;;;15.40;80.80;;;;;;4900066;28;91282;-50
2023/01/02 09:27:08;;;;;;;70.70;51.42;;;15.40;80.50;;;;;;4906873;28;89393;-50
2023/01/02 09:29:34;;;;;;;69.00;50.97;;;15.40;80.30;;;;;;4898972;28;90114;-49
2023/01/02 09:32:00;;;;;;;69.13;51.00;;;15.40;80.10;;;;;;4894993;28;96343;-49
2023/01/02 09:34:25;;;;;;;70.03;50.97;;;15.40;80.00;;;;;;4898322;28;94032;-50
2023/01/02 09:36:51;;;;;;;68.53;51.17;;;15.40;80.20;;;;;;4905747;28;91484;-51
2023/01/02 09:39:17;;;;;;;71.40;52.47;;;15.40;80.30;;;;;;4910460;28;91810;-49
2023/01/02 09:41:58;;;;;;;71.15;53.47;;;15.50;80.30;;;;;;4909977;28;90366;-48
2023/01/02 09:44:29;;;;;;;71.00;53.72;;;15.50;80.50;;;;;;4906076;28;89800;-47
2023/01/02 09:47:03;;;;;;;73.32;55.47;;;15.50;80.70;;;;;;4906924;28;90992;-50
2023/01/02 09:49:40;;;;;;;71.20;54.50;;;15.60;80.80;;;;;;4899096;28;94334;-51
2023/01/02 09:52:12;;;;;;;70.00;52.80;;;15.70;80.30;;;;;;4898305;28;91431;-51
2023/01/02 09:54:38;;;;;;;71.15;53.33;;;15.70;80.30;;;;;;4908140;28;91408;-51
2023/01/02 09:57:28;;;;;;;70.82;52.55;;;15.80;79.90;;;;;;4910278;28;92300;-48
2023/01/02 10:00:12;;;;;;;69.38;52.70;;;15.80;79.90;;;;;;4917957;28;91749;-49
2023/01/02 10:03:05;;;;;;;72.80;52.17;;;15.90;79.90;;;;;;4914032;28;90320;-48
2023/01/02 10:05:40;;;;;;;69.85;52.42;;;16.00;79.60;;;;;;4914205;28;89962;-46
2023/01/02 10:08:05;;;;;;;69.65;51.75;;;16.00;79.40;;;;;;4906735;28;89994;-51
2023/01/02 10:10:39;;;;;;;70.65;52.25;;;16.10;79.30;;;;;;4909436;28;89888;-52
2023/01/02 10:13:23;;;;;;;69.50;52.10;;;16.10;79.30;;;;;;4918913;28;89889;-51
2023/01/02 10:15:51;;;;;;;70.95;52.05;;;16.20;79.30;;;;;;4918756;28;89182;-51
2023/01/02 10:18:37;;;;;;;68.93;51.88;;;16.20;79.30;;;;;;4914544;28;91024;-51
2023/01/02 10:21:19;;;;;;;68.72;51.63;;;16.40;78.70;;;;;;4903625;28;90232;-52
2023/01/02 10:23:58;;;;;;;68.35;51.67;;;16.40;78.20;;;;;;4902165;28;91779;-49
2023/01/02 10:26:33;;;;;;;81.88;60.22;;;16.50;78.20;;;;;;4910126;28;90074;-50
2023/01/02 10:29:20;;;;;;;82.07;61.03;;;16.50;78.40;;;;;;4922899;28;91923;-48
2023/01/02 10:31:49;;;;;;;79.95;58.53;;;16.50;78.00;;;;;;4905911;28;90046;-50
2023/01/02 10:34:20;;;;;;;76.97;57.75;;;16.50;77.80;;;;;;4898256;28;91817;-51
2023/01/02 10:36:47;;;;;;;76.72;56.30;;;16.50;77.90;;;;;;4909828;28;90025;-51
2023/01/02 10:39:15;;;;;;;78.65;56.47;;;16.60;77.80;;;;;;4902209;28;92642;-49
2023/01/02 10:41:45;;;;;;;76.90;56.30;;;16.70;77.80;;;;;;4917059;28;89190;-55
2023/01/02 10:44:25;;;;;;;77.23;56.03;;;16.80;77.30;;;;;;4904197;28;92813;-51
2023/01/02 10:46:51;;;;;;;79.53;57.97;;;16.90;77.20;;;;;;4903730;28;90067;-51
2023/01/02 10:49:18;;;;;;;77.82;56.80;;;16.80;76.80;;;;;;4899149;28;91421;-50
2023/01/02 10:52:12;;;;;;;75.82;56.30;;;16.90;77.10;;;;;;4913704;28;95048;-53
2023/01/02 10:54:48;;;;;;;79.47;55.97;;;16.90;76.90;;;;;;4909882;28;91597;-49
2023/01/02 10:57:21;;;;;;;76.72;55.38;;;17.00;76.80;;;;;;4903361;28;93549;-53
2023/01/02 10:59:53;;;;;;;73.05;54.67;;;16.90;76.70;;;;;;4900869;28;91346;-52
2023/01/02 11:02:35;;;;;;;75.57;55.10;;;16.90;76.80;;;;;;4905407;28;92344;-53
2023/01/02 11:05:01;;;;;;;;;;;17.10;76.40;;;;;;4895128;28;90510;-53
2023/01/02 11:07:31;;;;;;;73.78;54.22;;;17.10;76.30;;;;;;4911855;28;90214;-53
2023/01/02 11:09:56;;;;;;;72.28;53.42;;;17.20;75.90;;;;;;4912539;28;90659;-49
2023/01/02 11:12:22;;;;;;;75.43;53.83;;;17.30;75.80;;;;;;4910262;28;89865;-50
2023/01/02 11:14:49;;;;;;;74.25;52.75;;;17.30;75.70;;;;;;4904568;28;91789;-49
2023/01/02 11:17:20;;;;;;;72.80;53.55;;;17.40;75.60;;;;;;4902347;28;90075;-51
2023/01/02 11:19:54;;;;;;;70.97;53.03;;;17.40;75.10;;;;;;4911605;28;89893;-55
2023/01/02 11:22:22;;;;;;;72.35;52.88;;;17.50;75.30;;;;;;4906462;28;89691;-49
2023/01/02 11:25:00;;;;;;;71.28;52.45;;;17.50;75.00;;;;;;4905908;28;91294;-49
2023/01/02 11:27:34;;;;;;;72.18;52.80;;;17.50;74.80;;;;;;4899116;28;93999;-56
2023/01/02 11:30:02;;;;;;;72.47;52.85;;;17.50;74.60;;;;;;4903694;28;91479;-49
2023/01/02 11:32:40;;;;;;;72.72;52.95;;;17.60;74.90;;;;;;4910976;28;89059;-52
2023/01/02 11:35:32;;;;;;;72.28;52.67;;;17.60;74.80;;;;;;4905614;28;90285;-52
2023/01/02 11:38:00;;;;;;;71.28;52.08;;;17.70;74.70;;;;;;4909088;28;89946;-55
2023/01/02 11:40:29;;;;;;;71.35;52.55;;;17.70;74.40;;;;;;4903759;28;92210;-49
2023/01/02 11:45:45;;;;;;;72.43;53.75;;;17.70;75.10;;;;;;4903763;28;92607;-50
2023/01/02 11:48:16;;;;;;;72.28;53.08;;;17.70;74.30;;;;;;4903287;28;93138;-51
2023/01/02 11:50:43;;;;;;;71.78;53.28;;;17.70;74.20;;;;;;4904507;28;90583;-50
2023/01/02 11:53:12;;;;;;;71.65;53.08;;;17.70;74.30;;;;;;4905416;28;90549;-46
2023/01/02 11:56:04;;;;;;;71.22;52.55;;;17.80;74.10;;;;;;4905569;28;95890;-53
2023/01/02 11:58:35;;;;;;;70.75;52.05;;;17.80;74.00;;;;;;4903689;28;90572;-51
2023/01/02 12:01:28;;;;;;;71.35;52.28;;;17.80;73.70;;;;;;4898926;28;94881;-51
2023/01/02 12:03:55;;;;;;;72.47;52.42;;;17.80;73.70;;;;;;4902562;28;89955;-51
2023/01/02 12:06:24;;;;;;;74.47;54.30;;;17.90;73.50;;;;;;4916081;28;90817;-52
2023/01/02 12:08:53;;;;;;;72.80;54.08;;;17.90;73.50;;;;;;4915775;28;93472;-53
2023/01/02 12:11:39;;;;;;;72.93;53.30;;;17.90;73.50;;;;;;4905184;28;90093;-52
2023/01/02 12:14:26;;;;;;;71.90;52.90;;;17.90;73.40;;;;;;4903881;28;89923;-49
2023/01/02 12:16:55;;;;;;;72.88;52.72;;;17.90;73.20;;;;;;4900096;28;94622;-48
2023/01/02 12:19:42;;;;;;;72.00;52.83;;;18.00;73.10;;;;;;4901336;28;95368;-52
2023/01/02 12:22:32;;;;;;;74.60;52.53;;;18.10;73.00;;;;;;4890700;28;90675;-51
2023/01/02 12:25:26;;;;;;;72.55;52.58;;;18.10;72.80;;;;;;4908532;28;89359;-48
2023/01/02 12:28:49;;;;;;;72.72;52.35;;;18.20;72.60;;;;;;4897967;28;96164;-49
2023/01/02 12:31:46;;;;;;;71.07;52.22;;;18.20;72.50;;;;;;4859717;28;93248;-48
2023/01/02 12:34:30;;;;;;;71.75;52.30;;;18.20;72.20;;;;;;4872145;28;98307;-50
2023/01/02 12:37:25;;;;;;;71.43;52.20;;;18.20;72.40;;;;;;4891349;28;94124;-47
2023/01/02 12:40:23;;;;;;;71.82;51.92;;;18.20;72.00;;;;;;4896437;28;92680;-50
2023/01/02 12:42:58;;;;;;;72.05;51.78;;;17.80;73.70;;;;;;4873879;28;92618;-52
2023/01/02 12:45:38;;;;;;;71.90;51.90;;;17.50;74.50;;;;;;4906024;28;90133;-53
2023/01/02 12:48:30;;;;;;;72.13;51.60;;;17.50;74.50;;;;;;4900875;28;92840;-47
2023/01/02 12:51:16;;;;;;;70.88;51.15;;;17.40;74.50;;;;;;4897415;28;90327;-48
2023/01/02 12:54:03;;;;;;;73.75;51.70;;;17.50;74.40;;;;;;4903470;28;90823;-47